sensor_id;sensor_type;location;lat;lon;timestamp;temperature;humidity
65766;SHT31;52915;53.718;19.946;2023-09-30T00:00:20;17.87;79.59
65766;SHT31;52915;53.718;19.946;2023-09-30T00:05:44;17.85;79.23
65766;SHT31;52915;53.718;19.946;2023-09-30T00:10:49;17.92;78.44
65766;SHT31;52915;53.718;19.946;2023-09-30T00:15:53;17.99;77.86
65766;SHT31;52915;53.718;19.946;2023-09-30T00:20:56;18.02;77.78
65766;SHT31;52915;53.718;19.946;2023-09-30T00:26:01;18.03;78.00
65766;SHT31;52915;53.718;19.946;2023-09-30T00:31:08;17.99;78.80
65766;SHT31;52915;53.718;19.946;2023-09-30T00:36:14;17.93;79.29
65766;SHT31;52915;53.718;19.946;2023-09-30T00:41:18;17.85;79.67
65766;SHT31;52915;53.718;19.946;2023-09-30T00:46:29;17.79;80.00
65766;SHT31;52915;53.718;19.946;2023-09-30T00:51:36;17.79;80.17
65766;SHT31;52915;53.718;19.946;2023-09-30T00:56:43;17.77;80.31
65766;SHT31;52915;53.718;19.946;2023-09-30T01:01:49;17.79;79.92
65766;SHT31;52915;53.718;19.946;2023-09-30T01:06:54;17.82;79.32
65766;SHT31;52915;53.718;19.946;2023-09-30T01:12:01;17.80;79.55
65766;SHT31;52915;53.718;19.946;2023-09-30T01:17:06;17.75;79.96
65766;SHT31;52915;53.718;19.946;2023-09-30T01:22:12;17.69;80.37
65766;SHT31;52915;53.718;19.946;2023-09-30T01:27:17;17.69;80.15
65766;SHT31;52915;53.718;19.946;2023-09-30T01:32:23;17.68;80.00
65766;SHT31;52915;53.718;19.946;2023-09-30T01:37:27;17.73;79.89
65766;SHT31;52915;53.718;19.946;2023-09-30T01:42:31;17.74;80.28
65766;SHT31;52915;53.718;19.946;2023-09-30T01:47:36;17.71;80.79
65766;SHT31;52915;53.718;19.946;2023-09-30T01:52:40;17.63;81.23
65766;SHT31;52915;53.718;19.946;2023-09-30T01:57:45;17.56;81.60
65766;SHT31;52915;53.718;19.946;2023-09-30T02:02:49;17.54;81.64
65766;SHT31;52915;53.718;19.946;2023-09-30T02:07:54;17.57;81.45
65766;SHT31;52915;53.718;19.946;2023-09-30T02:12:58;17.62;81.27
65766;SHT31;52915;53.718;19.946;2023-09-30T02:18:03;17.65;81.25
65766;SHT31;52915;53.718;19.946;2023-09-30T02:23:08;17.65;81.43
65766;SHT31;52915;53.718;19.946;2023-09-30T02:28:14;17.60;81.83
65766;SHT31;52915;53.718;19.946;2023-09-30T02:33:18;17.54;82.00
65766;SHT31;52915;53.718;19.946;2023-09-30T02:38:23;17.54;81.99
65766;SHT31;52915;53.718;19.946;2023-09-30T02:43:28;17.59;81.78
65766;SHT31;52915;53.718;19.946;2023-09-30T02:48:33;17.61;81.85
65766;SHT31;52915;53.718;19.946;2023-09-30T02:53:37;17.61;81.94
65766;SHT31;52915;53.718;19.946;2023-09-30T02:58:42;17.63;81.85
65766;SHT31;52915;53.718;19.946;2023-09-30T03:03:46;17.65;81.82
65766;SHT31;52915;53.718;19.946;2023-09-30T03:08:51;17.62;81.98
65766;SHT31;52915;53.718;19.946;2023-09-30T03:13:56;17.61;82.04
65766;SHT31;52915;53.718;19.946;2023-09-30T03:19:01;17.61;82.11
65766;SHT31;52915;53.718;19.946;2023-09-30T03:24:11;17.59;82.29
65766;SHT31;52915;53.718;19.946;2023-09-30T03:29:15;17.55;82.24
65766;SHT31;52915;53.718;19.946;2023-09-30T03:34:20;17.61;81.30
65766;SHT31;52915;53.718;19.946;2023-09-30T03:39:24;17.68;80.74
65766;SHT31;52915;53.718;19.946;2023-09-30T03:44:31;17.73;80.38
65766;SHT31;52915;53.718;19.946;2023-09-30T03:49:35;17.74;80.52
65766;SHT31;52915;53.718;19.946;2023-09-30T03:54:39;17.74;80.65
65766;SHT31;52915;53.718;19.946;2023-09-30T03:59:45;17.69;80.99
65766;SHT31;52915;53.718;19.946;2023-09-30T04:04:49;17.64;81.39
65766;SHT31;52915;53.718;19.946;2023-09-30T04:09:57;17.58;81.67
65766;SHT31;52915;53.718;19.946;2023-09-30T04:15:04;17.57;81.71
65766;SHT31;52915;53.718;19.946;2023-09-30T04:20:09;17.53;81.68
65766;SHT31;52915;53.718;19.946;2023-09-30T04:25:21;17.48;81.93
65766;SHT31;52915;53.718;19.946;2023-09-30T04:30:25;17.44;81.89
65766;SHT31;52915;53.718;19.946;2023-09-30T04:35:31;17.44;81.65
65766;SHT31;52915;53.718;19.946;2023-09-30T04:40:35;17.42;81.50
65766;SHT31;52915;53.718;19.946;2023-09-30T04:45:40;17.41;81.32
65766;SHT31;52915;53.718;19.946;2023-09-30T04:50:45;17.40;81.26
65766;SHT31;52915;53.718;19.946;2023-09-30T04:55:49;17.37;81.38
65766;SHT31;52915;53.718;19.946;2023-09-30T05:00:54;17.34;81.39
65766;SHT31;52915;53.718;19.946;2023-09-30T05:05:58;17.34;81.34
65766;SHT31;52915;53.718;19.946;2023-09-30T05:11:03;17.35;81.32
65766;SHT31;52915;53.718;19.946;2023-09-30T05:16:08;17.35;81.36
65766;SHT31;52915;53.718;19.946;2023-09-30T05:21:12;17.36;81.52
65766;SHT31;52915;53.718;19.946;2023-09-30T05:26:16;17.37;81.67
65766;SHT31;52915;53.718;19.946;2023-09-30T05:31:21;17.40;81.81
65766;SHT31;52915;53.718;19.946;2023-09-30T05:36:25;17.44;81.97
65766;SHT31;52915;53.718;19.946;2023-09-30T05:41:30;17.41;82.33
65766;SHT31;52915;53.718;19.946;2023-09-30T05:46:35;17.42;82.36
65766;SHT31;52915;53.718;19.946;2023-09-30T05:51:40;17.45;82.43
65766;SHT31;52915;53.718;19.946;2023-09-30T05:56:45;17.48;82.44
65766;SHT31;52915;53.718;19.946;2023-09-30T06:01:50;17.49;82.62
65766;SHT31;52915;53.718;19.946;2023-09-30T06:06:54;17.52;82.93
65766;SHT31;52915;53.718;19.946;2023-09-30T06:11:59;17.56;83.08
65766;SHT31;52915;53.718;19.946;2023-09-30T06:17:07;17.61;83.41
65766;SHT31;52915;53.718;19.946;2023-09-30T06:22:11;17.65;83.75
65766;SHT31;52915;53.718;19.946;2023-09-30T06:27:16;17.66;84.54
65766;SHT31;52915;53.718;19.946;2023-09-30T06:32:21;17.57;84.60
65766;SHT31;52915;53.718;19.946;2023-09-30T06:37:25;17.33;83.84
65766;SHT31;52915;53.718;19.946;2023-09-30T06:42:30;17.11;83.56
65766;SHT31;52915;53.718;19.946;2023-09-30T06:47:35;16.95;83.60
65766;SHT31;52915;53.718;19.946;2023-09-30T06:52:41;16.84;83.65
65766;SHT31;52915;53.718;19.946;2023-09-30T06:57:53;16.76;83.68
65766;SHT31;52915;53.718;19.946;2023-09-30T07:02:58;16.68;83.47
65766;SHT31;52915;53.718;19.946;2023-09-30T07:08:04;16.56;83.14
65766;SHT31;52915;53.718;19.946;2023-09-30T07:13:09;16.49;83.32
65766;SHT31;52915;53.718;19.946;2023-09-30T07:18:13;16.44;83.54
65766;SHT31;52915;53.718;19.946;2023-09-30T07:23:19;16.42;83.56
65766;SHT31;52915;53.718;19.946;2023-09-30T07:28:23;16.44;83.42
65766;SHT31;52915;53.718;19.946;2023-09-30T07:33:28;16.47;83.24
65766;SHT31;52915;53.718;19.946;2023-09-30T07:38:33;16.53;83.25
65766;SHT31;52915;53.718;19.946;2023-09-30T07:43:38;16.64;83.14
65766;SHT31;52915;53.718;19.946;2023-09-30T07:48:42;16.83;82.88
65766;SHT31;52915;53.718;19.946;2023-09-30T07:53:47;17.12;82.47
65766;SHT31;52915;53.718;19.946;2023-09-30T07:58:51;17.40;81.42
65766;SHT31;52915;53.718;19.946;2023-09-30T08:03:56;17.55;80.33
65766;SHT31;52915;53.718;19.946;2023-09-30T08:09:01;17.61;79.13
65766;SHT31;52915;53.718;19.946;2023-09-30T08:14:06;17.57;77.99
65766;SHT31;52915;53.718;19.946;2023-09-30T08:19:12;17.55;77.65
65766;SHT31;52915;53.718;19.946;2023-09-30T08:24:16;17.56;77.61
65766;SHT31;52915;53.718;19.946;2023-09-30T08:29:21;17.57;77.72
65766;SHT31;52915;53.718;19.946;2023-09-30T08:34:25;17.64;77.71
65766;SHT31;52915;53.718;19.946;2023-09-30T08:39:30;17.76;77.32
65766;SHT31;52915;53.718;19.946;2023-09-30T08:44:35;18.22;75.66
65766;SHT31;52915;53.718;19.946;2023-09-30T08:49:45;19.01;73.92
65766;SHT31;52915;53.718;19.946;2023-09-30T08:54:53;19.49;69.83
65766;SHT31;52915;53.718;19.946;2023-09-30T08:59:57;19.75;67.42
65766;SHT31;52915;53.718;19.946;2023-09-30T09:05:04;20.09;66.54
65766;SHT31;52915;53.718;19.946;2023-09-30T09:10:10;20.53;65.45
65766;SHT31;52915;53.718;19.946;2023-09-30T09:15:25;20.74;63.56
65766;SHT31;52915;53.718;19.946;2023-09-30T09:20:35;20.98;62.06
65766;SHT31;52915;53.718;19.946;2023-09-30T09:25:40;20.95;61.08
65766;SHT31;52915;53.718;19.946;2023-09-30T09:30:44;20.94;61.24
65766;SHT31;52915;53.718;19.946;2023-09-30T09:35:49;20.99;60.63
65766;SHT31;52915;53.718;19.946;2023-09-30T09:40:58;20.94;59.09
65766;SHT31;52915;53.718;19.946;2023-09-30T09:46:04;20.98;59.35
65766;SHT31;52915;53.718;19.946;2023-09-30T09:51:12;21.28;58.48
65766;SHT31;52915;53.718;19.946;2023-09-30T09:56:17;21.37;58.10
65766;SHT31;52915;53.718;19.946;2023-09-30T10:01:27;21.08;58.04
65766;SHT31;52915;53.718;19.946;2023-09-30T10:06:33;21.04;57.97
65766;SHT31;52915;53.718;19.946;2023-09-30T10:11:43;20.77;56.35
65766;SHT31;52915;53.718;19.946;2023-09-30T10:16:48;20.65;56.67
65766;SHT31;52915;53.718;19.946;2023-09-30T10:48:40;22.33;53.37
65766;SHT31;52915;53.718;19.946;2023-09-30T10:53:46;22.55;51.58
65766;SHT31;52915;53.718;19.946;2023-09-30T10:59:03;22.71;50.60
65766;SHT31;52915;53.718;19.946;2023-09-30T11:04:08;21.98;51.24
65766;SHT31;52915;53.718;19.946;2023-09-30T11:09:17;21.53;52.89
65766;SHT31;52915;53.718;19.946;2023-09-30T11:14:32;21.29;54.17
65766;SHT31;52915;53.718;19.946;2023-09-30T11:19:47;21.49;53.83
65766;SHT31;52915;53.718;19.946;2023-09-30T11:25:02;21.80;53.19
65766;SHT31;52915;53.718;19.946;2023-09-30T11:30:14;21.41;52.71
65766;SHT31;52915;53.718;19.946;2023-09-30T11:35:30;20.94;52.97
65766;SHT31;52915;53.718;19.946;2023-09-30T11:40:39;20.50;53.35
65766;SHT31;52915;53.718;19.946;2023-09-30T11:46:08;20.35;53.42
65766;SHT31;52915;53.718;19.946;2023-09-30T11:51:14;20.12;54.21
65766;SHT31;52915;53.718;19.946;2023-09-30T11:56:18;20.00;55.13
65766;SHT31;52915;53.718;19.946;2023-09-30T12:01:22;20.40;54.28
65766;SHT31;52915;53.718;19.946;2023-09-30T12:06:29;20.42;53.45
65766;SHT31;52915;53.718;19.946;2023-09-30T12:11:32;20.37;53.55
65766;SHT31;52915;53.718;19.946;2023-09-30T12:16:36;20.42;53.83
65766;SHT31;52915;53.718;19.946;2023-09-30T12:21:42;20.63;53.18
65766;SHT31;52915;53.718;19.946;2023-09-30T12:26:48;20.57;53.33
65766;SHT31;52915;53.718;19.946;2023-09-30T12:31:54;20.44;53.28
65766;SHT31;52915;53.718;19.946;2023-09-30T12:36:59;20.29;53.58
65766;SHT31;52915;53.718;19.946;2023-09-30T12:42:03;20.31;53.53
65766;SHT31;52915;53.718;19.946;2023-09-30T12:47:12;20.19;53.31
65766;SHT31;52915;53.718;19.946;2023-09-30T12:52:17;20.45;53.63
65766;SHT31;52915;53.718;19.946;2023-09-30T12:57:22;20.64;53.06
65766;SHT31;52915;53.718;19.946;2023-09-30T13:02:26;20.57;52.57
65766;SHT31;52915;53.718;19.946;2023-09-30T13:07:31;20.92;52.91
65766;SHT31;52915;53.718;19.946;2023-09-30T13:12:36;21.57;52.48
65766;SHT31;52915;53.718;19.946;2023-09-30T13:17:42;21.82;50.29
65766;SHT31;52915;53.718;19.946;2023-09-30T13:22:58;21.73;50.19
65766;SHT31;52915;53.718;19.946;2023-09-30T13:28:02;21.64;50.63
65766;SHT31;52915;53.718;19.946;2023-09-30T13:33:06;21.50;51.14
65766;SHT31;52915;53.718;19.946;2023-09-30T13:38:11;21.15;51.32
65766;SHT31;52915;53.718;19.946;2023-09-30T13:43:15;20.74;51.83
65766;SHT31;52915;53.718;19.946;2023-09-30T13:48:19;20.39;52.90
65766;SHT31;52915;53.718;19.946;2023-09-30T13:53:23;20.21;53.72
65766;SHT31;52915;53.718;19.946;2023-09-30T13:58:29;20.31;53.72
65766;SHT31;52915;53.718;19.946;2023-09-30T14:03:34;20.61;53.69
65766;SHT31;52915;53.718;19.946;2023-09-30T14:08:38;20.74;53.47
65766;SHT31;52915;53.718;19.946;2023-09-30T14:13:45;20.93;53.49
65766;SHT31;52915;53.718;19.946;2023-09-30T14:18:49;21.43;52.60
65766;SHT31;52915;53.718;19.946;2023-09-30T14:23:54;21.64;51.62
65766;SHT31;52915;53.718;19.946;2023-09-30T14:28:59;22.07;50.74
65766;SHT31;52915;53.718;19.946;2023-09-30T14:34:04;23.10;48.76
65766;SHT31;52915;53.718;19.946;2023-09-30T14:39:09;24.07;46.06
65766;SHT31;52915;53.718;19.946;2023-09-30T14:44:16;24.83;44.28
65766;SHT31;52915;53.718;19.946;2023-09-30T14:49:21;25.31;43.38
65766;SHT31;52915;53.718;19.946;2023-09-30T14:54:25;25.44;43.35
65766;SHT31;52915;53.718;19.946;2023-09-30T14:59:32;25.53;43.43
65766;SHT31;52915;53.718;19.946;2023-09-30T15:04:37;25.40;43.10
65766;SHT31;52915;53.718;19.946;2023-09-30T15:09:41;24.90;43.46
65766;SHT31;52915;53.718;19.946;2023-09-30T15:14:46;24.21;44.96
65766;SHT31;52915;53.718;19.946;2023-09-30T15:19:50;23.97;44.81
65766;SHT31;52915;53.718;19.946;2023-09-30T15:24:55;23.65;45.41
65766;SHT31;52915;53.718;19.946;2023-09-30T15:29:59;23.27;45.88
65766;SHT31;52915;53.718;19.946;2023-09-30T15:35:04;22.80;46.81
65766;SHT31;52915;53.718;19.946;2023-09-30T15:40:09;22.33;47.91
65766;SHT31;52915;53.718;19.946;2023-09-30T15:45:14;21.87;48.74
65766;SHT31;52915;53.718;19.946;2023-09-30T15:50:21;21.44;50.04
65766;SHT31;52915;53.718;19.946;2023-09-30T15:55:25;20.73;51.26
65766;SHT31;52915;53.718;19.946;2023-09-30T16:00:29;20.04;52.60
65766;SHT31;52915;53.718;19.946;2023-09-30T16:05:35;19.52;54.01
65766;SHT31;52915;53.718;19.946;2023-09-30T16:10:43;19.09;55.31
65766;SHT31;52915;53.718;19.946;2023-09-30T16:15:48;18.75;56.37
65766;SHT31;52915;53.718;19.946;2023-09-30T16:20:52;18.43;57.25
65766;SHT31;52915;53.718;19.946;2023-09-30T16:25:59;18.18;58.10
65766;SHT31;52915;53.718;19.946;2023-09-30T16:31:05;17.94;58.88
65766;SHT31;52915;53.718;19.946;2023-09-30T16:36:10;17.71;59.74
65766;SHT31;52915;53.718;19.946;2023-09-30T16:41:14;17.54;60.35
65766;SHT31;52915;53.718;19.946;2023-09-30T16:46:18;17.34;61.12
65766;SHT31;52915;53.718;19.946;2023-09-30T16:51:22;17.13;61.85
65766;SHT31;52915;53.718;19.946;2023-09-30T16:56:26;16.93;62.46
65766;SHT31;52915;53.718;19.946;2023-09-30T17:01:31;16.70;63.35
65766;SHT31;52915;53.718;19.946;2023-09-30T17:06:35;16.59;64.01
65766;SHT31;52915;53.718;19.946;2023-09-30T17:11:39;16.52;64.32
65766;SHT31;52915;53.718;19.946;2023-09-30T17:16:43;16.45;64.72
65766;SHT31;52915;53.718;19.946;2023-09-30T17:21:47;16.41;64.89
65766;SHT31;52915;53.718;19.946;2023-09-30T17:26:50;16.32;65.09
65766;SHT31;52915;53.718;19.946;2023-09-30T17:31:55;16.23;65.25
65766;SHT31;52915;53.718;19.946;2023-09-30T17:36:59;16.14;65.52
65766;SHT31;52915;53.718;19.946;2023-09-30T17:42:03;15.99;65.74
65766;SHT31;52915;53.718;19.946;2023-09-30T17:47:07;15.90;65.93
65766;SHT31;52915;53.718;19.946;2023-09-30T17:52:11;15.80;66.11
65766;SHT31;52915;53.718;19.946;2023-09-30T17:57:15;15.71;66.30
65766;SHT31;52915;53.718;19.946;2023-09-30T18:02:20;15.59;66.67
65766;SHT31;52915;53.718;19.946;2023-09-30T18:07:24;15.45;67.04
65766;SHT31;52915;53.718;19.946;2023-09-30T18:12:28;15.33;67.17
65766;SHT31;52915;53.718;19.946;2023-09-30T18:17:32;15.19;67.45
65766;SHT31;52915;53.718;19.946;2023-09-30T18:22:39;15.07;67.97
65766;SHT31;52915;53.718;19.946;2023-09-30T18:27:43;15.05;68.22
65766;SHT31;52915;53.718;19.946;2023-09-30T18:32:47;15.07;68.21
65766;SHT31;52915;53.718;19.946;2023-09-30T18:37:51;15.04;68.31
65766;SHT31;52915;53.718;19.946;2023-09-30T18:42:56;14.95;68.61
65766;SHT31;52915;53.718;19.946;2023-09-30T18:48:00;14.87;68.89
65766;SHT31;52915;53.718;19.946;2023-09-30T18:53:04;14.82;68.92
65766;SHT31;52915;53.718;19.946;2023-09-30T18:58:11;14.77;69.04
65766;SHT31;52915;53.718;19.946;2023-09-30T19:03:16;14.71;69.24
65766;SHT31;52915;53.718;19.946;2023-09-30T19:08:20;14.64;69.40
65766;SHT31;52915;53.718;19.946;2023-09-30T19:13:29;14.54;69.63
65766;SHT31;52915;53.718;19.946;2023-09-30T19:18:33;14.44;69.78
65766;SHT31;52915;53.718;19.946;2023-09-30T19:23:38;14.34;69.99
65766;SHT31;52915;53.718;19.946;2023-09-30T19:28:43;14.26;70.17
65766;SHT31;52915;53.718;19.946;2023-09-30T19:33:47;14.19;70.32
65766;SHT31;52915;53.718;19.946;2023-09-30T19:38:51;14.15;70.46
65766;SHT31;52915;53.718;19.946;2023-09-30T19:43:56;14.16;70.39
65766;SHT31;52915;53.718;19.946;2023-09-30T19:49:00;14.18;70.28
65766;SHT31;52915;53.718;19.946;2023-09-30T19:54:05;14.19;70.30
65766;SHT31;52915;53.718;19.946;2023-09-30T19:59:10;14.19;70.40
65766;SHT31;52915;53.718;19.946;2023-09-30T20:04:15;14.15;70.64
65766;SHT31;52915;53.718;19.946;2023-09-30T20:09:19;14.11;70.82
65766;SHT31;52915;53.718;19.946;2023-09-30T20:14:26;14.05;71.04
65766;SHT31;52915;53.718;19.946;2023-09-30T20:19:31;14.00;71.17
65766;SHT31;52915;53.718;19.946;2023-09-30T20:24:35;13.94;71.39
65766;SHT31;52915;53.718;19.946;2023-09-30T20:29:39;13.86;71.57
65766;SHT31;52915;53.718;19.946;2023-09-30T20:34:44;13.81;71.72
65766;SHT31;52915;53.718;19.946;2023-09-30T20:39:49;13.73;71.75
65766;SHT31;52915;53.718;19.946;2023-09-30T20:44:55;13.65;71.79
65766;SHT31;52915;53.718;19.946;2023-09-30T20:49:59;13.58;72.00
65766;SHT31;52915;53.718;19.946;2023-09-30T20:55:04;13.52;72.26
65766;SHT31;52915;53.718;19.946;2023-09-30T21:00:10;13.48;72.46
65766;SHT31;52915;53.718;19.946;2023-09-30T21:05:16;13.43;72.71
65766;SHT31;52915;53.718;19.946;2023-09-30T21:10:20;13.37;72.93
65766;SHT31;52915;53.718;19.946;2023-09-30T21:15:25;13.32;73.14
65766;SHT31;52915;53.718;19.946;2023-09-30T21:20:29;13.26;73.31
65766;SHT31;52915;53.718;19.946;2023-09-30T21:25:33;13.18;73.47
65766;SHT31;52915;53.718;19.946;2023-09-30T21:30:38;13.10;73.79
65766;SHT31;52915;53.718;19.946;2023-09-30T21:35:43;13.03;74.01
65766;SHT31;52915;53.718;19.946;2023-09-30T21:41:00;12.94;74.45
65766;SHT31;52915;53.718;19.946;2023-09-30T21:46:06;12.86;74.78
65766;SHT31;52915;53.718;19.946;2023-09-30T21:51:12;12.79;75.01
65766;SHT31;52915;53.718;19.946;2023-09-30T21:56:16;12.69;75.19
65766;SHT31;52915;53.718;19.946;2023-09-30T22:01:21;12.63;75.32
65766;SHT31;52915;53.718;19.946;2023-09-30T22:06:25;12.55;75.59
65766;SHT31;52915;53.718;19.946;2023-09-30T22:11:30;12.52;75.74
65766;SHT31;52915;53.718;19.946;2023-09-30T22:16:34;12.50;75.82
65766;SHT31;52915;53.718;19.946;2023-09-30T22:21:39;12.45;76.00
65766;SHT31;52915;53.718;19.946;2023-09-30T22:26:43;12.40;76.28
65766;SHT31;52915;53.718;19.946;2023-09-30T22:31:47;12.35;76.41
65766;SHT31;52915;53.718;19.946;2023-09-30T22:36:51;12.33;76.50
65766;SHT31;52915;53.718;19.946;2023-09-30T22:41:55;12.32;76.56
65766;SHT31;52915;53.718;19.946;2023-09-30T22:46:59;12.32;76.63
65766;SHT31;52915;53.718;19.946;2023-09-30T22:52:05;12.31;76.75
65766;SHT31;52915;53.718;19.946;2023-09-30T22:57:09;12.30;76.90
65766;SHT31;52915;53.718;19.946;2023-09-30T23:02:13;12.31;77.00
65766;SHT31;52915;53.718;19.946;2023-09-30T23:07:17;12.30;77.14
65766;SHT31;52915;53.718;19.946;2023-09-30T23:12:22;12.28;77.21
65766;SHT31;52915;53.718;19.946;2023-09-30T23:17:26;12.28;77.29
65766;SHT31;52915;53.718;19.946;2023-09-30T23:22:31;12.27;77.38
65766;SHT31;52915;53.718;19.946;2023-09-30T23:27:35;12.25;77.46
65766;SHT31;52915;53.718;19.946;2023-09-30T23:32:44;12.21;77.60
65766;SHT31;52915;53.718;19.946;2023-09-30T23:37:53;12.17;77.75
65766;SHT31;52915;53.718;19.946;2023-09-30T23:43:06;12.13;77.90
65766;SHT31;52915;53.718;19.946;2023-09-30T23:48:20;12.10;78.13
65766;SHT31;52915;53.718;19.946;2023-09-30T23:53:25;12.10;78.21
65766;SHT31;52915;53.718;19.946;2023-09-30T23:58:30;12.10;78.31
